Time;durP1;ratioP1;P1;durP2;ratioP2;P2;SDS_P1;SDS_P2;PMS_P1;PMS_P2;Temp;Humidity;BMP_temperature;BMP_pressure;BME280_temperature;BME280_humidity;BME280_pressure;Samples;Min_cycle;Max_cycle;Signal;HPM_P1;HPM_P2
2023/08/25 00:00:26;;;;;;;;;;;;;;;24.74;57.77;99525.91;3156713;28;20285;-71
2023/08/25 00:01:57;;;;;;;;;;;;;;;24.74;58.08;99526.72;3156204;28;20348;-71
2023/08/25 00:03:28;;;;;;;;;;;;;;;24.73;58.12;99532.25;3159561;28;19930;-71
2023/08/25 00:05:00;;;;;;;;;;;;;;;24.75;58.05;99527.56;3159672;28;19993;-70
2023/08/25 00:06:30;;;;;;;;;;;;;;;24.74;58.07;99525.91;3159318;28;20344;-70
2023/08/25 00:08:02;;;;;;;;;;;;;;;24.72;58.08;99523.41;3153119;28;20000;-71
2023/08/25 00:09:34;;;;;;;;;;;;;;;24.71;57.81;99521.75;3158884;28;19928;-70
2023/08/25 00:11:04;;;;;;;;;;;;;;;24.71;57.91;99518.25;3159526;28;20000;-70
2023/08/25 00:12:37;;;;;;;;;;;;;;;24.73;57.92;99514.44;3159233;28;19920;-70
2023/08/25 00:14:08;;;;;;;;;;;;;;;24.71;58.26;99515.59;3152373;28;20674;-70
2023/08/25 00:15:40;;;;;;;;;;;;;;;24.70;57.93;99517.44;3155068;28;19931;-70
2023/08/25 00:17:10;;;;;;;;;;;;;;;24.68;57.88;99516.75;3159417;28;19965;-70
2023/08/25 00:18:42;;;;;;;;;;;;;;;24.69;57.89;99513.06;3159498;28;20018;-69
2023/08/25 00:20:12;;;;;;;;;;;;;;;24.70;57.80;99509.44;3159005;28;19920;-69
2023/08/25 00:21:44;;;;;;;;;;;;;;;24.70;57.83;99513.94;3159461;28;19924;-69
2023/08/25 00:23:15;;;;;;;;;;;;;;;24.69;58.08;99518.41;3135522;28;19932;-69
2023/08/25 00:24:47;;;;;;;;;;;;;;;24.70;57.98;99520.09;3155707;28;20030;-69
2023/08/25 00:26:17;;;;;;;;;;;;;;;24.70;58.02;99519.25;3158663;28;19920;-68
2023/08/25 00:27:50;;;;;;;;;;;;;;;24.70;57.67;99519.25;3158693;28;19930;-69
2023/08/25 00:29:21;;;;;;;;;;;;;;;24.70;58.09;99516.59;3159218;28;20060;-68
2023/08/25 00:30:54;;;;;;;;;;;;;;;24.68;58.13;99521.25;3154268;28;19972;-68
2023/08/25 00:32:25;;;;;;;;;;;;;;;24.66;58.27;99521.41;3150861;28;19924;-68
2023/08/25 00:33:57;;;;;;;;;;;;;;;24.62;58.36;99525.41;3158714;28;19927;-68
2023/08/25 00:35:28;;;;;;;;;;;;;;;24.61;58.19;99526.41;3159273;28;19924;-68
2023/08/25 00:37:00;;;;;;;;;;;;;;;24.62;58.55;99524.59;3157263;28;20010;-68
2023/08/25 00:38:30;;;;;;;;;;;;;;;24.61;58.18;99518.44;3150307;28;20014;-69
2023/08/25 00:40:03;;;;;;;;;;;;;;;24.61;58.47;99518.44;3150966;28;20435;-69
2023/08/25 00:41:34;;;;;;;;;;;;;;;24.61;58.30;99515.78;3158690;28;20006;-69
2023/08/25 00:43:07;;;;;;;;;;;;;;;24.60;58.24;99519.41;3158935;28;19924;-68
2023/08/25 00:44:38;;;;;;;;;;;;;;;24.60;58.16;99519.41;3154420;28;19921;-72
2023/08/25 00:46:09;;;;;;;;;;;;;;;24.57;58.59;99530.38;3159241;28;19930;-72
2023/08/25 00:47:41;;;;;;;;;;;;;;;24.54;58.38;99521.91;3158275;28;20389;-71
2023/08/25 00:49:12;;;;;;;;;;;;;;;24.49;58.66;99530.38;3158983;28;19931;-71
2023/08/25 00:50:43;;;;;;;;;;;;;;;24.44;58.72;99525.56;3158573;28;19920;-72
2023/08/25 00:52:16;;;;;;;;;;;;;;;24.41;58.83;99533.03;3152226;28;19970;-72
2023/08/25 00:53:48;;;;;;;;;;;;;;;24.39;59.00;99529.69;3151649;28;20352;-74
2023/08/25 00:55:19;;;;;;;;;;;;;;;24.37;58.67;99529.00;3158879;28;19921;-72
2023/08/25 00:56:51;;;;;;;;;;;;;;;24.35;58.81;99531.03;3158750;28;19926;-71
2023/08/25 00:58:23;;;;;;;;;;;;;;;24.33;58.74;99535.66;3158721;28;19924;-71
2023/08/25 00:59:54;;;;;;;;;;;;;;;24.29;59.02;99530.69;3153704;28;19981;-72
2023/08/25 01:01:25;;;;;;;;;;;;;;;24.30;58.88;99540.31;3147706;28;20323;-70
2023/08/25 01:02:57;;;;;;;;;;;;;;;24.31;58.85;99530.50;3158550;28;19926;-70
2023/08/25 01:04:28;;;;;;;;;;;;;;;24.34;58.34;99537.31;3158758;28;20373;-70
2023/08/25 01:05:59;;;;;;;;;;;;;;;24.36;58.25;99541.50;3158330;28;19923;-70
2023/08/25 01:07:30;;;;;;;;;;;;;;;24.37;58.28;99531.66;3150697;28;19985;-70
2023/08/25 01:09:01;;;;;;;;;;;;;;;24.37;58.26;99544.97;3158581;28;19920;-70
2023/08/25 01:10:35;;;;;;;;;;;;;;;24.36;58.58;99548.66;3158723;28;20410;-70
2023/08/25 01:12:09;;;;;;;;;;;;;;;24.35;58.28;99547.00;3158763;28;19920;-71
2023/08/25 01:13:46;;;;;;;;;;;;;;;24.35;58.23;99545.16;3151908;28;19927;-71
2023/08/25 01:15:21;;;;;;;;;;;;;;;24.35;58.38;99547.81;3158463;28;19920;-70
2023/08/25 01:17:06;;;;;;;;;;;;;;;24.37;58.20;99544.97;3158519;28;19930;-70
2023/08/25 01:18:38;;;;;;;;;;;;;;;24.38;58.11;99544.81;3158763;28;19920;-71
2023/08/25 01:20:11;;;;;;;;;;;;;;;24.37;58.19;99544.97;3158372;28;19931;-67
2023/08/25 01:21:46;;;;;;;;;;;;;;;24.30;58.22;99534.16;3158220;28;19967;-67
2023/08/25 01:23:20;;;;;;;;;;;;;;;24.25;58.64;99552.44;3157589;28;20057;-68
2023/08/25 01:24:52;;;;;;;;;;;;;;;24.17;59.11;99553.28;3158408;28;19920;-68
2023/08/25 01:26:27;;;;;;;;;;;;;;;24.09;59.30;99545.28;3158679;28;20393;-68
2023/08/25 01:27:58;;;;;;;;;;;;;;;24.05;59.60;99554.56;3150907;28;19920;-69
2023/08/25 01:29:30;;;;;;;;;;;;;;;23.97;60.28;99549.22;3154601;28;19931;-68
2023/08/25 01:31:00;;;;;;;;;;;;;;;23.93;60.60;99548.72;3157911;28;20393;-73
2023/08/25 01:32:32;;;;;;;;;;;;;;;23.88;60.89;99545.72;3153067;28;19920;-73
2023/08/25 01:34:03;;;;;;;;;;;;;;;23.81;61.30;99542.88;3157972;28;20405;-73
2023/08/25 01:35:42;;;;;;;;;;;;;;;23.78;61.47;99550.31;3153119;28;19930;-73
2023/08/25 01:37:19;;;;;;;;;;;;;;;23.74;61.35;99548.97;3145614;28;19987;-72
2023/08/25 01:38:54;;;;;;;;;;;;;;;23.65;62.08;99553.38;3145210;28;19991;-73
2023/08/25 01:40:29;;;;;;;;;;;;;;;23.52;62.86;99555.66;3158065;28;20010;-72
2023/08/25 01:42:03;;;;;;;;;;;;;;;23.38;63.75;99555.25;3158337;28;20369;-72
2023/08/25 01:43:36;;;;;;;;;;;;;;;23.28;63.92;99554.53;3153771;28;20365;-71
2023/08/25 01:45:09;;;;;;;;;;;;;;;23.16;64.73;99555.78;3158536;28;20313;-72
2023/08/25 01:46:43;;;;;;;;;;;;;;;23.06;65.17;99555.88;3158202;28;20388;-71
2023/08/25 01:48:14;;;;;;;;;;;;;;;22.99;65.42;99559.31;3157869;28;20321;-72
2023/08/25 01:49:46;;;;;;;;;;;;;;;22.92;65.44;99565.22;3157598;28;19928;-71
2023/08/25 01:51:17;;;;;;;;;;;;;;;22.87;66.00;99562.19;3158264;28;19920;-72
2023/08/25 01:52:49;;;;;;;;;;;;;;;22.79;66.14;99561.28;3144094;28;20334;-71
2023/08/25 01:54:21;;;;;;;;;;;;;;;22.75;66.28;99560.75;3158120;28;19927;-72
2023/08/25 01:55:51;;;;;;;;;;;;;;;22.71;66.39;99556.72;3157980;28;20383;-71
2023/08/25 01:57:24;;;;;;;;;;;;;;;22.70;66.36;99565.69;3155434;28;19924;-72
2023/08/25 01:58:55;;;;;;;;;;;;;;;22.66;66.65;99559.03;3156859;28;19924;-71
2023/08/25 02:00:26;;;;;;;;;;;;;;;22.61;67.04;99558.66;3154159;28;19920;-72
2023/08/25 02:01:57;;;;;;;;;;;;;;;22.54;67.30;99557.56;3152805;28;20334;-72
2023/08/25 02:03:28;;;;;;;;;;;;;;;22.53;67.15;99555.91;3157927;28;19930;-72
2023/08/25 02:04:59;;;;;;;;;;;;;;;22.48;67.58;99556.38;3157797;28;19920;-71
2023/08/25 02:06:30;;;;;;;;;;;;;;;22.44;67.64;99569.09;3158141;28;20330;-71
2023/08/25 02:08:02;;;;;;;;;;;;;;;22.40;67.86;99562.44;3151754;28;19988;-71
2023/08/25 02:09:33;;;;;;;;;;;;;;;22.35;67.88;99567.34;3158066;28;20474;-71
2023/08/25 02:11:04;;;;;;;;;;;;;;;22.37;67.54;99564.56;3157715;28;19927;-71
2023/08/25 02:12:37;;;;;;;;;;;;;;;22.39;67.39;99567.88;3153873;28;19927;-71
2023/08/25 02:14:07;;;;;;;;;;;;;;;22.42;67.28;99568.44;3151077;28;19927;-70
2023/08/25 02:15:43;;;;;;;;;;;;;;;22.47;66.75;99566.13;3157998;28;19976;-70
2023/08/25 02:17:13;;;;;;;;;;;;;;;22.53;66.49;99566.53;3157556;28;20179;-70
2023/08/25 02:18:45;;;;;;;;;;;;;;;22.56;66.06;99568.88;3158337;28;20227;-70
2023/08/25 02:20:15;;;;;;;;;;;;;;;22.58;66.18;99566.91;3157729;28;19931;-71
2023/08/25 02:21:48;;;;;;;;;;;;;;;22.60;65.70;99568.44;3157944;28;20432;-71
2023/08/25 02:23:18;;;;;;;;;;;;;;;22.63;65.29;99569.94;3133838;28;19961;-70
2023/08/25 02:24:50;;;;;;;;;;;;;;;22.65;65.18;99560.81;3137419;28;20116;-71
2023/08/25 02:26:20;;;;;;;;;;;;;;;;;;3152640;28;19920;-71
2023/08/25 02:27:53;;;;;;;;;;;;;;;22.70;64.93;99571.00;3154970;28;19974;-71
2023/08/25 02:29:25;;;;;;;;;;;;;;;22.72;64.96;99571.69;3157616;28;19981;-71
2023/08/25 02:30:57;;;;;;;;;;;;;;;22.72;64.88;99574.34;3158301;28;19924;-71
2023/08/25 02:32:27;;;;;;;;;;;;;;;22.69;64.61;99580.78;3153130;28;19920;-71
2023/08/25 02:33:59;;;;;;;;;;;;;;;22.67;64.83;99577.44;3157516;28;19924;-71
2023/08/25 02:35:29;;;;;;;;;;;;;;;22.68;64.67;99583.56;3157831;28;19968;-71
2023/08/25 02:37:01;;;;;;;;;;;;;;;22.70;64.33;99587.75;3155568;28;19968;-71
2023/08/25 02:38:33;;;;;;;;;;;;;;;22.74;64.05;99590.94;3149076;28;19931;-73
2023/08/25 02:40:04;;;;;;;;;;;;;;;22.79;64.08;99586.00;3157478;28;19935;-74
2023/08/25 02:41:35;;;;;;;;;;;;;;;22.83;63.85;99589.19;3152816;28;19920;-73
2023/08/25 02:43:07;;;;;;;;;;;;;;;22.84;63.96;99589.03;3157868;28;19923;-73
2023/08/25 02:44:39;;;;;;;;;;;;;;;22.83;63.79;99584.69;3157371;28;19982;-72
2023/08/25 02:46:10;;;;;;;;;;;;;;;22.86;63.58;99586.22;3157721;28;19920;-75
2023/08/25 02:47:42;;;;;;;;;;;;;;;22.88;63.48;99581.59;3157982;28;20008;-73
2023/08/25 02:49:12;;;;;;;;;;;;;;;22.92;63.09;99580.28;3157950;28;19927;-74
2023/08/25 02:50:44;;;;;;;;;;;;;;;22.94;63.22;99579.19;3157888;28;20319;-73
2023/08/25 02:52:14;;;;;;;;;;;;;;;22.99;63.05;99580.56;3154328;28;19924;-73
2023/08/25 02:53:46;;;;;;;;;;;;;;;23.03;62.81;99573.94;3154191;28;19935;-73
2023/08/25 02:55:19;;;;;;;;;;;;;;;23.05;62.63;99571.97;3157207;28;19924;-75
2023/08/25 02:56:50;;;;;;;;;;;;;;;23.09;62.60;99575.97;3152829;28;19943;-74
2023/08/25 02:58:22;;;;;;;;;;;;;;;23.10;62.45;99573.19;3157619;28;20064;-68
2023/08/25 02:59:54;;;;;;;;;;;;;;;23.11;62.58;99577.50;3158089;28;19920;-72
2023/08/25 03:01:25;;;;;;;;;;;;;;;23.12;62.58;99570.34;3149845;28;19931;-71
2023/08/25 03:02:56;;;;;;;;;;;;;;;23.13;62.44;99572.88;3159770;28;19924;-71
2023/08/25 03:04:28;;;;;;;;;;;;;;;23.15;62.32;99573.53;3156748;28;19934;-71
2023/08/25 03:05:59;;;;;;;;;;;;;;;23.18;62.31;99569.72;3159869;28;20596;-70
2023/08/25 03:07:30;;;;;;;;;;;;;;;23.19;61.93;99568.75;3153158;28;20003;-72
2023/08/25 03:09:04;;;;;;;;;;;;;;;23.20;62.08;99573.06;3159494;28;20440;-72
2023/08/25 03:10:35;;;;;;;;;;;;;;;23.20;62.27;99578.38;3155495;28;19921;-71
2023/08/25 03:12:07;;;;;;;;;;;;;;;23.20;62.33;99583.69;3160102;28;19973;-72
2023/08/25 03:13:39;;;;;;;;;;;;;;;23.20;62.52;99590.84;3141098;28;19920;-72
2023/08/25 03:15:10;;;;;;;;;;;;;;;23.19;62.48;99591.81;3158681;28;19927;-72
2023/08/25 03:16:42;;;;;;;;;;;;;;;23.17;62.21;99590.16;3160410;28;19961;-71
2023/08/25 03:18:13;;;;;;;;;;;;;;;23.16;62.43;99593.81;3159596;28;20325;-71
2023/08/25 03:19:44;;;;;;;;;;;;;;;23.15;62.61;99601.91;3159710;28;19920;-71
2023/08/25 03:21:16;;;;;;;;;;;;;;;23.14;62.64;99602.91;3155261;28;19926;-71
2023/08/25 03:22:46;;;;;;;;;;;;;;;23.12;62.42;99611.03;3159531;28;20411;-71
2023/08/25 03:24:18;;;;;;;;;;;;;;;23.10;62.57;99613.03;3159464;28;19950;-71
2023/08/25 03:25:48;;;;;;;;;;;;;;;23.08;62.69;99612.34;3155036;28;20395;-71
2023/08/25 03:27:20;;;;;;;;;;;;;;;23.06;62.80;99606.34;3160038;28;19919;-71
2023/08/25 03:28:52;;;;;;;;;;;;;;;23.05;62.92;99611.81;3152490;28;19920;-71
2023/08/25 03:30:23;;;;;;;;;;;;;;;23.05;62.61;99612.66;3159548;28;19974;-72
2023/08/25 03:31:54;;;;;;;;;;;;;;;23.03;62.93;99611.94;3154719;28;19931;-71
2023/08/25 03:33:25;;;;;;;;;;;;;;;23.03;62.81;99614.59;3159458;28;19920;-71
2023/08/25 03:34:56;;;;;;;;;;;;;;;23.04;62.88;99610.97;3159934;28;19924;-71
2023/08/25 03:36:29;;;;;;;;;;;;;;;23.05;62.50;99612.66;3159565;28;19970;-70
2023/08/25 03:37:59;;;;;;;;;;;;;;;23.05;62.43;99611.81;3137810;28;19924;-70
2023/08/25 03:39:31;;;;;;;;;;;;;;;23.06;62.80;99609.00;3150893;28;19924;-69
2023/08/25 03:41:03;;;;;;;;;;;;;;;23.06;63.01;99616.97;3153298;28;19924;-69
2023/08/25 03:42:33;;;;;;;;;;;;;;;23.08;62.56;99614.16;3154126;28;19924;-70
2023/08/25 03:44:07;;;;;;;;;;;;;;;23.10;62.65;99612.16;3154268;28;20010;-70
2023/08/25 03:45:39;;;;;;;;;;;;;;;23.13;62.44;99612.72;3154131;28;20533;-70
2023/08/25 03:47:09;;;;;;;;;;;;;;;23.16;62.38;99611.56;3154201;28;20425;-70
2023/08/25 03:48:41;;;;;;;;;;;;;;;23.15;62.50;99602.75;3154204;28;20000;-72
2023/08/25 03:50:12;;;;;;;;;;;;;;;23.11;63.14;99608.53;3154298;28;19930;-72
2023/08/25 03:51:43;;;;;;;;;;;;;;;23.07;63.26;99607.16;3154060;28;20408;-73
2023/08/25 03:53:15;;;;;;;;;;;;;;;23.04;63.09;99607.47;3140696;28;19989;-73
2023/08/25 03:54:46;;;;;;;;;;;;;;;23.02;63.50;99604.16;3149117;28;19931;-76
2023/08/25 03:56:17;;;;;;;;;;;;;;;22.96;63.86;99602.94;3154181;28;19924;-72
2023/08/25 03:57:49;;;;;;;;;;;;;;;22.91;63.87;99608.66;3153553;28;19978;-72
2023/08/25 03:59:21;;;;;;;;;;;;;;;22.90;63.94;99607.00;3154131;28;19954;-74
2023/08/25 04:00:53;;;;;;;;;;;;;;;22.92;63.99;99609.50;3144200;28;20019;-73
2023/08/25 04:02:23;;;;;;;;;;;;;;;22.91;63.87;99608.66;3154423;28;19924;-73
2023/08/25 04:03:55;;;;;;;;;;;;;;;22.91;63.96;99602.53;3154263;28;19946;-72
2023/08/25 04:05:25;;;;;;;;;;;;;;;22.89;64.30;99599.19;3153567;28;20711;-73
2023/08/25 04:06:57;;;;;;;;;;;;;;;22.84;64.43;99599.66;3153143;28;19928;-86
2023/08/25 04:08:28;;;;;;;;;;;;;;;22.84;64.48;99604.16;3149045;28;19993;-86
2023/08/25 04:09:59;;;;;;;;;;;;;;;22.85;64.20;99600.50;3151037;28;19924;-75
2023/08/25 04:11:30;;;;;;;;;;;;;;;22.86;64.20;99602.97;3153382;28;19931;-72
2023/08/25 04:13:02;;;;;;;;;;;;;;;22.87;64.07;99604.66;3152799;28;20191;-73
2023/08/25 04:14:34;;;;;;;;;;;;;;;22.90;64.20;99603.53;3148519;28;19931;-72
2023/08/25 04:16:05;;;;;;;;;;;;;;;22.94;63.83;99612.84;3153979;28;20717;-78
2023/08/25 04:17:36;;;;;;;;;;;;;;;23.00;64.01;99616.75;3151941;28;20298;-70
2023/08/25 04:19:08;;;;;;;;;;;;;;;23.02;64.07;99618.25;3154314;28;19935;-79
2023/08/25 04:20:39;;;;;;;;;;;;;;;23.05;63.96;99619.78;3154502;28;20475;-76
2023/08/25 04:22:10;;;;;;;;;;;;;;;23.09;63.71;99619.31;3151296;28;19978;-74
2023/08/25 04:23:42;;;;;;;;;;;;;;;23.13;63.77;99606.53;3142902;28;19924;-75
2023/08/25 04:25:12;;;;;;;;;;;;;;;23.15;63.74;99605.41;3148267;28;19931;-77
2023/08/25 04:26:44;;;;;;;;;;;;;;;23.12;63.76;99605.72;3154063;28;19924;-83
2023/08/25 04:28:14;;;;;;;;;;;;;;;23.08;63.86;99607.03;3153682;28;19924;-81
2023/08/25 04:29:48;;;;;;;;;;;;;;;23.10;64.07;99604.19;3154022;28;19984;-77
2023/08/25 04:31:19;;;;;;;;;;;;;;;23.07;63.93;99604.50;3151184;28;19966;-75
2023/08/25 04:32:51;;;;;;;;;;;;;;;23.07;63.86;99612.47;3144785;28;19924;-80
2023/08/25 04:34:22;;;;;;;;;;;;;;;23.06;63.76;99614.31;3153954;28;19974;-73
2023/08/25 04:35:53;;;;;;;;;;;;;;;23.09;63.75;99613.16;3153798;28;19924;-70
2023/08/25 04:37:24;;;;;;;;;;;;;;;23.11;63.77;99614.69;3146300;28;20380;-72
2023/08/25 04:38:55;;;;;;;;;;;;;;;23.16;63.80;99619.53;3150048;28;19931;-70
2023/08/25 04:40:26;;;;;;;;;;;;;;;23.18;63.86;99622.84;3153360;28;19929;-68
2023/08/25 04:41:58;;;;;;;;;;;;;;;23.20;63.54;99620.06;3154034;28;19963;-69
2023/08/25 04:43:29;;;;;;;;;;;;;;;23.23;63.55;99620.59;3153188;28;19970;-71
2023/08/25 04:45:04;;;;;;;;;;;;;;;23.27;63.43;99623.75;3153945;28;19992;-69
2023/08/25 04:46:35;;;;;;;;;;;;;;;23.29;63.46;99621.78;3153493;28;20404;-73
2023/08/25 04:48:07;;;;;;;;;;;;;;;23.30;63.20;99624.28;3141656;28;19934;-68
2023/08/25 04:49:39;;;;;;;;;;;;;;;23.32;63.09;99627.63;3148679;28;20324;-70
2023/08/25 04:51:11;;;;;;;;;;;;;;;23.37;63.15;99624.50;3153551;28;19929;-68
2023/08/25 04:52:41;;;;;;;;;;;;;;;23.41;63.14;99617.06;3152720;28;19924;-68
2023/08/25 04:54:13;;;;;;;;;;;;;;;23.43;63.19;99621.22;3148558;28;20298;-78
2023/08/25 04:55:44;;;;;;;;;;;;;;;23.46;62.90;99615.59;3153282;28;20342;-71
2023/08/25 04:57:16;;;;;;;;;;;;;;;23.49;62.98;99609.97;3153619;28;19924;-71
2023/08/25 04:58:47;;;;;;;;;;;;;;;23.55;62.78;99614.66;3154244;28;20031;-74
2023/08/25 05:00:21;;;;;;;;;;;;;;;23.61;62.69;99613.19;3150901;28;20256;-76
2023/08/25 05:01:52;;;;;;;;;;;;;;;23.66;62.59;99615.34;3141198;28;20476;-78
2023/08/25 05:03:23;;;;;;;;;;;;;;;23.71;62.43;99615.75;3152970;28;19924;-76
2023/08/25 05:04:54;;;;;;;;;;;;;;;23.74;62.25;99613.59;3153328;28;19927;-81
2023/08/25 05:06:26;;;;;;;;;;;;;;;23.74;61.98;99618.94;3153110;28;20413;-77
2023/08/25 05:07:57;;;;;;;;;;;;;;;23.75;62.00;99617.97;3138784;28;19928;-77
2023/08/25 05:09:28;;;;;;;;;;;;;;;23.76;62.03;99616.94;3143877;28;19955;-77
2023/08/25 05:11:00;;;;;;;;;;;;;;;23.78;62.22;99620.28;3153420;28;21133;-76
2023/08/25 05:12:31;;;;;;;;;;;;;;;23.80;62.04;99612.97;3152651;28;19963;-77
2023/08/25 05:14:03;;;;;;;;;;;;;;;23.81;61.98;99619.13;3141720;28;19924;-78
2023/08/25 05:15:35;;;;;;;;;;;;;;;23.82;62.23;99610.16;3152940;28;19927;-76
2023/08/25 05:17:06;;;;;;;;;;;;;;;23.85;62.11;99615.16;3153172;28;19989;-76
2023/08/25 05:18:38;;;;;;;;;;;;;;;23.89;62.06;99613.03;3153446;28;19981;-77
2023/08/25 05:20:10;;;;;;;;;;;;;;;23.93;61.96;99617.00;3151454;28;19924;-76
2023/08/25 05:21:45;;;;;;;;;;;;;;;23.97;61.82;99621.03;3151753;28;19924;-77
2023/08/25 05:23:16;;;;;;;;;;;;;;;24.01;61.71;99625.03;3150066;28;20334;-79
2023/08/25 05:24:47;;;;;;;;;;;;;;;24.07;61.26;99629.72;3150394;28;19935;-75
2023/08/25 05:26:19;;;;;;;;;;;;;;;24.12;61.37;99627.41;3152675;28;20389;-76
2023/08/25 05:27:50;;;;;;;;;;;;;;;24.19;61.17;99628.41;3152871;28;19924;-80
2023/08/25 05:29:22;;;;;;;;;;;;;;;24.26;60.91;99639.28;3153042;28;19924;-74
2023/08/25 05:30:54;;;;;;;;;;;;;;;24.37;61.07;99646.09;3153566;28;19970;-76
2023/08/25 05:32:26;;;;;;;;;;;;;;;24.46;60.71;99643.38;3141625;28;20302;-73
2023/08/25 05:33:56;;;;;;;;;;;;;;;24.59;60.85;99642.06;3153037;28;19927;-77
2023/08/25 05:35:28;;;;;;;;;;;;;;;24.74;60.75;99643.06;3152290;28;19976;-77
2023/08/25 05:36:59;;;;;;;;;;;;;;;24.90;60.09;99632.41;3150511;28;20423;-73
2023/08/25 05:38:31;;;;;;;;;;;;;;;25.06;60.29;99636.94;3140159;28;19924;-75
2023/08/25 05:40:02;;;;;;;;;;;;;;;25.22;59.85;99638.78;3153077;28;19993;-73
2023/08/25 05:41:33;;;;;;;;;;;;;;;25.35;59.90;99636.47;3152725;28;19924;-71
2023/08/25 05:43:08;;;;;;;;;;;;;;;25.49;59.40;99642.09;3153263;28;19924;-75
2023/08/25 05:44:39;;;;;;;;;;;;;;;25.64;59.55;99630.56;3153252;28;20418;-73
2023/08/25 05:46:12;;;;;;;;;;;;;;;25.79;58.85;99643.19;3144732;28;19928;-71
2023/08/25 05:47:43;;;;;;;;;;;;;;;25.95;58.82;99647.69;3140529;28;19978;-73
2023/08/25 05:49:15;;;;;;;;;;;;;;;26.13;58.63;99642.09;3152413;28;19974;-73
2023/08/25 05:50:46;;;;;;;;;;;;;;;26.29;58.40;99650.03;3153094;28;19956;-72
2023/08/25 05:52:18;;;;;;;;;;;;;;;26.46;57.98;99648.94;3148412;28;19940;-73
2023/08/25 05:53:49;;;;;;;;;;;;;;;26.68;57.46;99649.16;3150306;28;20002;-72
2023/08/25 05:55:21;;;;;;;;;;;;;;;26.89;57.47;99648.53;3152686;28;19936;-83
2023/08/25 05:56:52;;;;;;;;;;;;;;;27.04;57.01;99653.94;3153017;28;19924;-75
2023/08/25 05:58:23;;;;;;;;;;;;;;;27.11;56.79;99654.88;3152610;28;19980;-85
2023/08/25 05:59:55;;;;;;;;;;;;;;;27.23;56.13;99656.13;3152831;28;20011;-79
2023/08/25 06:01:28;;;;;;;;;;;;;;;27.32;56.37;99649.69;3143619;28;19934;-78
2023/08/25 06:03:02;;;;;;;;;;;;;;;27.36;56.01;99658.19;3153098;28;19927;-83
2023/08/25 06:04:32;;;;;;;;;;;;;;;27.43;55.80;99646.59;3152918;28;19966;-73
2023/08/25 06:06:04;;;;;;;;;;;;;;;27.52;55.75;99652.69;3148849;28;19944;-70
2023/08/25 06:07:35;;;;;;;;;;;;;;;27.65;55.73;99646.69;3141224;28;19972;-73
2023/08/25 06:09:08;;;;;;;;;;;;;;;27.79;55.63;99653.94;3141980;28;19928;-73
2023/08/25 06:10:39;;;;;;;;;;;;;;;27.92;55.32;99647.94;3142237;28;19930;-73
2023/08/25 06:12:11;;;;;;;;;;;;;;;28.03;54.98;99654.66;3152537;28;19974;-75
2023/08/25 06:13:42;;;;;;;;;;;;;;;28.16;54.67;99654.84;3151650;28;19924;-74
2023/08/25 06:15:13;;;;;;;;;;;;;;;28.31;54.65;99657.50;3152419;28;19924;-79
2023/08/25 06:17:02;;;;;;;;;;;;;;;28.46;54.22;99657.50;3152318;28;20100;-73
2023/08/25 06:18:38;;;;;;;;;;;;;;;28.61;54.11;99652.09;3152570;28;20034;-73
2023/08/25 06:20:11;;;;;;;;;;;;;;;28.69;53.44;99658.19;3152510;28;19924;-73
2023/08/25 06:21:42;;;;;;;;;;;;;;;28.78;53.22;99654.34;3152682;28;19924;-73
2023/08/25 06:23:14;;;;;;;;;;;;;;;28.76;52.90;99655.56;3142279;28;19923;-74
2023/08/25 06:24:46;;;;;;;;;;;;;;;28.85;52.51;99649.06;3152372;28;19936;-73
2023/08/25 06:26:18;;;;;;;;;;;;;;;29.00;52.38;99651.66;3152902;28;20697;-72
2023/08/25 06:27:48;;;;;;;;;;;;;;;29.00;51.51;99652.50;3152097;28;19924;-69
2023/08/25 06:29:20;;;;;;;;;;;;;;;28.96;51.23;99650.41;3152083;28;20435;-69
2023/08/25 06:30:51;;;;;;;;;;;;;;;28.83;51.08;99644.91;3152532;28;20732;-69
2023/08/25 06:32:24;;;;;;;;;;;;;;;28.81;51.01;99650.47;3143452;28;19931;-68
2023/08/25 06:33:55;;;;;;;;;;;;;;;28.93;51.06;99642.72;3152305;28;19923;-69
2023/08/25 06:35:27;;;;;;;;;;;;;;;28.99;50.48;99642.78;3152175;28;19935;-65
2023/08/25 06:37:07;;;;;;;;;;;;;;;29.02;50.24;99642.44;3150808;28;19924;-66
2023/08/25 06:38:46;;;;;;;;;;;;;;;29.02;50.43;99647.81;3127582;28;19928;-66
2023/08/25 06:40:36;;;;;;;;;;;;;;;29.06;50.03;99650.91;3127927;28;20074;-65
2023/08/25 06:42:13;;;;;;;;;;;;;;;29.08;50.05;99658.78;3152199;28;19923;-66
2023/08/25 06:43:47;;;;;;;;;;;;;;;29.06;49.97;99656.28;3144671;28;20402;-66
2023/08/25 06:45:22;;;;;;;;;;;;;;;29.02;49.78;99657.69;3152577;28;19924;-65
2023/08/25 06:47:08;;;;;;;;;;;;;;;28.96;49.64;99659.28;3152334;28;20361;-66
2023/08/25 06:48:56;;;;;;;;;;;;;;;28.90;49.41;99664.53;3145488;28;19924;-68
2023/08/25 06:50:36;;;;;;;;;;;;;;;28.86;49.31;99660.59;3147464;28;20392;-67
2023/08/25 06:52:09;;;;;;;;;;;;;;;28.84;49.38;99662.63;3143309;28;19924;-67
2023/08/25 06:53:39;;;;;;;;;;;;;;;28.86;49.24;99658.75;3152015;28;19977;-67
2023/08/25 06:55:11;;;;;;;;;;;;;;;28.91;49.40;99656.31;3152106;28;20026;-67
2023/08/25 06:56:42;;;;;;;;;;;;;;;28.99;49.07;99658.06;3152517;28;20351;-68
2023/08/25 06:58:14;;;;;;;;;;;;;;;29.07;48.77;99655.25;3151688;28;19923;-67
2023/08/25 06:59:44;;;;;;;;;;;;;;;29.12;48.61;99660.06;3152611;28;19928;-67
2023/08/25 07:01:18;;;;;;;;;;;;;;;29.10;48.77;99662.09;3134254;28;20818;-67
2023/08/25 07:02:48;;;;;;;;;;;;;;;29.02;48.43;99649.66;3147891;28;19936;-67
2023/08/25 07:04:22;;;;;;;;;;;;;;;28.98;48.62;99651.00;3149517;28;19924;-68
2023/08/25 07:05:56;;;;;;;;;;;;;;;28.97;48.45;99646.69;3136727;28;20015;-69
2023/08/25 07:07:28;;;;;;;;;;;;;;;29.01;48.52;99647.94;3140414;28;20715;-68
2023/08/25 07:08:59;;;;;;;;;;;;;;;29.11;48.57;99650.34;3142852;28;20477;-69
2023/08/25 07:10:31;;;;;;;;;;;;;;;29.21;48.13;99651.66;3146304;28;19924;-69
2023/08/25 07:12:04;;;;;;;;;;;;;;;29.35;48.13;99649.09;3152713;28;19989;-69
2023/08/25 07:13:36;;;;;;;;;;;;;;;29.53;47.99;99657.50;3149683;28;19963;-71
2023/08/25 07:15:07;;;;;;;;;;;;;;;29.68;47.64;99657.41;3152423;28;19993;-68
2023/08/25 07:16:39;;;;;;;;;;;;;;;29.81;47.22;99654.78;3152512;28;20003;-70
2023/08/25 07:18:10;;;;;;;;;;;;;;;29.98;47.14;99646.44;3152601;28;19928;-73
2023/08/25 07:19:43;;;;;;;;;;;;;;;30.13;47.12;99644.44;3152124;28;20515;-69
2023/08/25 07:21:14;;;;;;;;;;;;;;;30.27;46.81;99643.47;3152505;28;19963;-68
2023/08/25 07:22:46;;;;;;;;;;;;;;;30.37;46.32;99643.09;3141006;28;20687;-69
2023/08/25 07:24:17;;;;;;;;;;;;;;;30.48;46.52;99647.88;3151403;28;20320;-68
2023/08/25 07:25:52;;;;;;;;;;;;;;;30.65;46.37;99642.97;3152427;28;19935;-68
2023/08/25 07:27:23;;;;;;;;;;;;;;;30.81;46.03;99639.09;3127306;28;20019;-66
2023/08/25 07:28:55;;;;;;;;;;;;;;;30.79;45.57;99636.63;3151572;28;19942;-68
2023/08/25 07:30:26;;;;;;;;;;;;;;;30.81;45.63;99634.53;3152140;28;19924;-68
2023/08/25 07:31:57;;;;;;;;;;;;;;;30.91;45.48;99636.00;3151812;28;19931;-69
2023/08/25 07:33:29;;;;;;;;;;;;;;;30.95;45.36;99643.47;3151929;28;19978;-66
2023/08/25 07:35:02;;;;;;;;;;;;;;;30.96;45.26;99639.72;3152251;28;20438;-66
2023/08/25 07:36:33;;;;;;;;;;;;;;;30.98;45.14;99634.97;3144494;28;19924;-66
2023/08/25 07:38:05;;;;;;;;;;;;;;;31.13;45.13;99633.97;3146478;28;19923;-65
2023/08/25 07:39:37;;;;;;;;;;;;;;;31.33;45.20;99626.72;3148511;28;19973;-69
2023/08/25 07:41:09;;;;;;;;;;;;;;;31.45;44.61;99626.94;3151846;28;19932;-68
2023/08/25 07:42:41;;;;;;;;;;;;;;;31.56;44.75;99625.44;3152027;28;19924;-68
2023/08/25 07:44:11;;;;;;;;;;;;;;;31.71;44.80;99623.38;3152275;28;19985;-70
2023/08/25 07:45:44;;;;;;;;;;;;;;;31.74;44.39;99625.63;3151907;28;20070;-69
2023/08/25 07:47:14;;;;;;;;;;;;;;;31.78;44.60;99624.16;3153036;28;19924;-72
2023/08/25 07:48:47;;;;;;;;;;;;;;;31.87;44.45;99620.19;3154326;28;20303;-71
2023/08/25 07:50:19;;;;;;;;;;;;;;;32.08;44.47;99623.66;3154390;28;20462;-70
2023/08/25 07:51:50;;;;;;;;;;;;;;;32.31;44.21;99623.97;3149388;28;19924;-69
2023/08/25 07:53:21;;;;;;;;;;;;;;;32.58;43.16;99621.16;3148083;28;19927;-68
2023/08/25 07:54:53;;;;;;;;;;;;;;;32.78;43.20;99623.72;3153999;28;20029;-67
2023/08/25 07:56:23;;;;;;;;;;;;;;;32.99;42.20;99630.66;3154155;28;19931;-70
2023/08/25 07:57:55;;;;;;;;;;;;;;;33.19;42.49;99630.47;3154077;28;19924;-71
2023/08/25 07:59:27;;;;;;;;;;;;;;;33.59;42.24;99635.53;3153239;28;20019;-63